Time;durP1;ratioP1;P1;durP2;ratioP2;P2;SDS_P1;SDS_P2;PMS_P1;PMS_P2;Temp;Humidity;BMP_temperature;BMP_pressure;BME280_temperature;BME280_humidity;BME280_pressure;Samples;Min_cycle;Max_cycle;Signal;HPM_P1;HPM_P2
2022/03/17 00:00:56;;;;;;;40.72;23.58;;;6.70;99.90;;;;;;4997287;28;20092;-68
2022/03/17 00:03:22;;;;;;;;;;;6.70;99.90;;;;;;4998649;28;20093;-69
2022/03/17 00:05:48;;;;;;;41.72;25.02;;;6.60;99.90;;;;;;4989716;28;19984;-69
2022/03/17 00:08:14;;;;;;;40.70;23.00;;;6.60;99.90;;;;;;4997240;28;20025;-69
2022/03/17 00:10:40;;;;;;;39.67;22.90;;;6.60;99.90;;;;;;4992077;28;20041;-69
2022/03/17 00:13:06;;;;;;;40.67;23.53;;;6.60;99.90;;;;;;4996637;28;20037;-68
2022/03/17 00:15:31;;;;;;;38.93;23.20;;;6.60;99.90;;;;;;4994009;28;20026;-69
2022/03/17 00:17:58;;;;;;;40.00;22.87;;;6.60;99.90;;;;;;4998293;28;20022;-69
2022/03/17 00:20:24;;;;;;;39.20;23.45;;;6.60;99.90;;;;;;4997021;28;20018;-68
2022/03/17 00:22:49;;;;;;;41.37;24.17;;;6.50;99.90;;;;;;4992872;28;20033;-69
2022/03/17 00:25:17;;;;;;;44.43;24.67;;;6.50;99.90;;;;;;4996050;28;20452;-69
2022/03/17 00:27:43;;;;;;;42.80;24.73;;;6.50;99.90;;;;;;4992901;28;21560;-69
2022/03/17 00:30:10;;;;;;;40.58;23.65;;;6.50;99.90;;;;;;4996904;28;20048;-68
2022/03/17 00:32:38;;;;;;;39.35;23.60;;;6.50;99.90;;;;;;4994329;28;20510;-69
2022/03/17 00:37:52;;;;;;;41.70;24.33;;;6.50;99.90;;;;;;4992499;28;20101;-69
2022/03/17 00:40:18;;;;;;;44.72;25.15;;;6.40;99.90;;;;;;4995374;28;20021;-68
2022/03/17 00:42:44;;;;;;;41.50;24.00;;;6.30;99.90;;;;;;4992909;28;20089;-68
2022/03/17 00:45:10;;;;;;;40.77;23.93;;;6.40;99.90;;;;;;5000007;28;20092;-69
2022/03/17 00:47:37;;;;;;;41.45;24.02;;;6.30;99.90;;;;;;4997713;28;20030;-69
2022/03/17 00:50:04;;;;;;;45.03;24.05;;;6.30;99.90;;;;;;5000906;28;20072;-68
2022/03/17 00:52:29;;;;;;;41.85;24.42;;;6.30;99.90;;;;;;4998025;28;20121;-69
2022/03/17 00:54:55;;;;;;;37.73;23.13;;;6.30;99.90;;;;;;5001376;28;20469;-68
2022/03/17 00:57:21;;;;;;;42.77;24.13;;;6.30;99.90;;;;;;4999255;28;20026;-69
2022/03/17 00:59:48;;;;;;;41.17;23.30;;;6.30;99.90;;;;;;4998099;28;20140;-69
2022/03/17 01:02:16;;;;;;;40.42;24.15;;;6.20;99.90;;;;;;5002096;28;20110;-68
2022/03/17 01:04:42;;;;;;;40.70;24.45;;;6.20;99.90;;;;;;4998733;28;20018;-69
2022/03/17 01:07:08;;;;;;;38.93;23.77;;;6.20;99.90;;;;;;5002271;28;20020;-69
2022/03/17 01:09:34;;;;;;;40.33;22.87;;;6.20;99.90;;;;;;4998504;28;20030;-69
2022/03/17 01:12:00;;;;;;;43.42;24.88;;;6.20;99.90;;;;;;4999543;28;20084;-69
2022/03/17 01:14:26;;;;;;;40.38;24.92;;;6.20;99.90;;;;;;4999957;28;20701;-68
2022/03/17 01:16:52;;;;;;;39.97;23.37;;;6.10;99.90;;;;;;4996421;28;20124;-68
2022/03/17 01:19:21;;;;;;;41.07;24.53;;;6.10;99.90;;;;;;5002378;28;20021;-68
2022/03/17 01:21:48;;;;;;;37.50;21.90;;;6.10;99.90;;;;;;4996258;28;20028;-69
2022/03/17 01:24:14;;;;;;;42.58;24.02;;;6.10;99.90;;;;;;4999026;28;20029;-68
2022/03/17 01:26:41;;;;;;;41.83;24.98;;;6.10;99.90;;;;;;4997160;28;20526;-68
2022/03/17 01:29:06;;;;;;;42.90;25.25;;;6.10;99.90;;;;;;5001235;28;20022;-69
2022/03/17 01:31:32;;;;;;;40.77;23.50;;;6.10;99.90;;;;;;4995440;28;20930;-69
2022/03/17 01:33:59;;;;;;;41.53;25.23;;;6.10;99.90;;;;;;5000367;28;20017;-68
2022/03/17 01:36:25;;;;;;;43.45;24.42;;;6.10;99.90;;;;;;4998847;28;20517;-68
2022/03/17 01:38:51;;;;;;;41.35;24.70;;;6.10;99.90;;;;;;4996474;28;20022;-69
2022/03/17 01:41:17;;;;;;;41.30;24.30;;;6.00;99.90;;;;;;4999578;28;20026;-69
2022/03/17 01:43:43;;;;;;;45.30;25.57;;;6.00;99.90;;;;;;4996394;28;20080;-69
2022/03/17 01:46:11;;;;;;;42.50;25.77;;;6.00;99.90;;;;;;5000155;28;20426;-68
2022/03/17 01:48:37;;;;;;;43.03;24.85;;;5.90;99.90;;;;;;4997667;28;20383;-69
2022/03/17 01:51:03;;;;;;;46.10;26.08;;;5.90;99.90;;;;;;4998833;28;20167;-68
2022/03/17 01:53:30;;;;;;;42.03;24.50;;;5.90;99.90;;;;;;4995921;28;20113;-69
2022/03/17 01:55:57;;;;;;;43.58;25.38;;;5.80;99.90;;;;;;5000179;28;20510;-69
2022/03/17 01:58:24;;;;;;;45.20;25.67;;;5.80;99.90;;;;;;5000168;28;20075;-68
2022/03/17 02:00:50;;;;;;;;;;;5.80;99.90;;;;;;4996075;28;20021;-69
2022/03/17 02:03:16;;;;;;;42.22;24.83;;;5.80;99.90;;;;;;4999439;28;19901;-68
2022/03/17 02:05:43;;;;;;;42.00;25.00;;;5.80;99.90;;;;;;4993762;28;20715;-69
2022/03/17 02:08:10;;;;;;;;;;;5.80;99.90;;;;;;4999261;28;20520;-69
2022/03/17 02:13:21;;;;;;;44.05;23.63;;;5.70;99.90;;;;;;4996069;28;20040;-68
2022/03/17 02:15:51;;;;;;;;;;;5.70;99.90;;;;;;4995615;28;20032;-68
2022/03/17 02:18:17;;;;;;;42.53;23.40;;;5.70;99.90;;;;;;4999029;28;19920;-68
2022/03/17 02:20:43;;;;;;;44.50;25.58;;;5.60;99.90;;;;;;4996577;28;20025;-69
2022/03/17 02:25:58;;;;;;;46.25;25.67;;;5.50;99.90;;;;;;4994402;28;20029;-68
2022/03/17 02:28:29;;;;;;;43.80;25.75;;;5.50;99.90;;;;;;5011202;28;20018;-68
2022/03/17 02:30:56;;;;;;;47.13;25.80;;;5.50;99.90;;;;;;4994055;28;20036;-69
2022/03/17 02:33:21;;;;;;;;;;;5.50;99.90;;;;;;4998327;28;20471;-68
2022/03/17 02:35:49;;;;;;;44.75;25.33;;;5.50;99.90;;;;;;4993420;28;20071;-69
2022/03/17 02:38:16;;;;;;;45.35;24.40;;;5.40;99.90;;;;;;4999409;28;20054;-68
2022/03/17 02:40:42;;;;;;;;;;;5.40;99.90;;;;;;4995038;28;20570;-69
2022/03/17 02:43:09;;;;;;;43.53;24.75;;;5.40;99.90;;;;;;4998421;28;19905;-68
2022/03/17 02:45:36;;;;;;;47.53;25.05;;;5.40;99.90;;;;;;4994513;28;20025;-69
2022/03/17 02:48:05;;;;;;;43.10;24.95;;;5.40;99.90;;;;;;4999234;28;20041;-68
2022/03/17 02:50:32;;;;;;;44.22;24.98;;;5.30;99.90;;;;;;4993964;28;20036;-69
2022/03/17 02:53:04;;;;;;;43.78;25.20;;;5.30;99.90;;;;;;4998344;28;20017;-68
2022/03/17 02:55:32;;;;;;;45.45;26.63;;;5.30;99.90;;;;;;4995558;28;20495;-68
2022/03/17 02:57:57;;;;;;;45.78;25.58;;;5.30;99.90;;;;;;4996971;28;20029;-68
2022/03/17 03:00:23;;;;;;;44.10;25.33;;;5.30;99.90;;;;;;4997835;28;20025;-68
2022/03/17 03:02:49;;;;;;;49.10;27.87;;;5.30;99.90;;;;;;4991498;28;20692;-69
2022/03/17 03:05:15;;;;;;;45.60;26.95;;;5.30;99.90;;;;;;4998650;28;20532;-69
2022/03/17 03:07:41;;;;;;;47.43;26.17;;;5.30;99.90;;;;;;4996088;28;20026;-69
2022/03/17 03:10:07;;;;;;;45.28;27.70;;;5.30;99.90;;;;;;4999567;28;20156;-68
2022/03/17 03:12:33;;;;;;;43.97;24.63;;;5.30;99.90;;;;;;4994163;28;20133;-69
2022/03/17 03:14:59;;;;;;;43.40;25.07;;;5.30;99.90;;;;;;4999370;28;20414;-69
2022/03/17 03:17:26;;;;;;;42.33;25.75;;;5.30;99.90;;;;;;4998148;28;20022;-68
2022/03/17 03:19:52;;;;;;;45.78;26.52;;;5.20;99.90;;;;;;4994424;28;20042;-69
2022/03/17 03:22:18;;;;;;;49.35;27.13;;;5.20;99.90;;;;;;4997297;28;20022;-69
2022/03/17 03:24:45;;;;;;;49.00;26.57;;;5.20;99.90;;;;;;4993762;28;20046;-69
2022/03/17 03:27:11;;;;;;;48.42;26.50;;;5.20;99.90;;;;;;4999268;28;20076;-68
2022/03/17 03:29:37;;;;;;;51.43;28.60;;;5.20;99.90;;;;;;4994080;28;20018;-69
2022/03/17 03:32:03;;;;;;;48.20;25.53;;;5.20;99.90;;;;;;4996747;28;20032;-68
2022/03/17 03:34:31;;;;;;;45.28;25.88;;;5.20;99.90;;;;;;4997034;28;20554;-69
2022/03/17 03:39:42;;;;;;;48.00;26.50;;;5.10;99.90;;;;;;4993005;28;20221;-68
2022/03/17 03:42:09;;;;;;;50.13;27.63;;;5.10;99.90;;;;;;4997860;28;20727;-68
2022/03/17 03:44:36;;;;;;;47.40;27.23;;;5.10;99.90;;;;;;4995111;28;20499;-69
2022/03/17 03:47:02;;;;;;;48.95;27.05;;;5.10;99.90;;;;;;4997889;28;20112;-68
2022/03/17 03:49:28;;;;;;;47.83;26.83;;;5.10;99.90;;;;;;4998017;28;20026;-68
2022/03/17 03:51:54;;;;;;;43.97;25.87;;;5.10;99.90;;;;;;4993069;28;20026;-68
2022/03/17 03:54:20;;;;;;;51.20;26.93;;;5.10;99.90;;;;;;5012975;28;20022;-68
2022/03/17 03:56:51;;;;;;;50.30;27.13;;;5.00;99.90;;;;;;4993935;28;20057;-69
2022/03/17 03:59:22;;;;;;;50.63;28.40;;;5.00;99.90;;;;;;4996452;28;20061;-68
2022/03/17 04:01:49;;;;;;;53.80;27.67;;;5.10;99.90;;;;;;4993679;28;20113;-68
2022/03/17 04:04:19;;;;;;;51.10;28.58;;;5.10;99.90;;;;;;4996423;28;20107;-68
2022/03/17 04:06:46;;;;;;;51.58;28.52;;;5.10;99.90;;;;;;4992464;28;20455;-69
2022/03/17 04:09:24;;;;;;;44.70;26.23;;;5.20;99.90;;;;;;4997155;28;20028;-68
2022/03/17 04:11:50;;;;;;;50.28;26.73;;;5.10;99.90;;;;;;4989305;28;20038;-69
2022/03/17 04:14:18;;;;;;;50.17;28.33;;;5.10;99.90;;;;;;4997282;28;20026;-68
2022/03/17 04:16:44;;;;;;;50.53;27.23;;;5.10;99.90;;;;;;4993817;28;20504;-69
2022/03/17 04:19:10;;;;;;;43.58;26.08;;;5.10;99.90;;;;;;4997928;28;20040;-68
2022/03/17 04:21:35;;;;;;;46.70;26.33;;;5.00;99.90;;;;;;4997754;28;20018;-69
2022/03/17 04:24:02;;;;;;;50.17;28.17;;;5.00;99.90;;;;;;5000026;28;20029;-69
2022/03/17 04:26:28;;;;;;;50.17;26.83;;;5.00;99.90;;;;;;5000949;28;20037;-68
2022/03/17 04:28:55;;;;;;;48.88;27.38;;;5.00;99.90;;;;;;4997411;28;20591;-69
2022/03/17 04:31:21;;;;;;;49.67;26.60;;;5.00;99.90;;;;;;4999624;28;20103;-69
2022/03/17 04:33:48;;;;;;;49.97;27.87;;;4.90;99.90;;;;;;4997532;28;20026;-68
2022/03/17 04:36:13;;;;;;;;;;;4.90;99.90;;;;;;5001119;28;20269;-69
2022/03/17 04:38:39;;;;;;;50.83;26.15;;;4.90;99.90;;;;;;4997709;28;20551;-71
2022/03/17 04:41:06;;;;;;;48.60;27.37;;;4.90;99.90;;;;;;5000272;28;20049;-69
2022/03/17 04:43:32;;;;;;;52.00;27.98;;;4.90;99.90;;;;;;5000385;28;20261;-68
2022/03/17 04:45:59;;;;;;;50.90;27.08;;;4.90;99.90;;;;;;4997150;28;20053;-69
2022/03/17 04:48:25;;;;;;;50.88;26.70;;;4.90;99.90;;;;;;5001046;28;20125;-68
2022/03/17 04:50:50;;;;;;;49.50;27.60;;;4.90;99.90;;;;;;4996175;28;20045;-69
2022/03/17 04:53:30;;;;;;;50.33;27.67;;;4.90;99.90;;;;;;5001618;28;20018;-69
2022/03/17 04:55:57;;;;;;;49.25;28.15;;;4.90;99.90;;;;;;4994091;28;20014;-69
2022/03/17 04:58:23;;;;;;;52.30;28.52;;;5.00;99.90;;;;;;5001250;28;20030;-69
2022/03/17 05:00:51;;;;;;;48.60;28.47;;;4.90;99.90;;;;;;4995106;28;20029;-69
2022/03/17 05:03:16;;;;;;;51.60;27.85;;;4.90;99.90;;;;;;4999339;28;20121;-68
2022/03/17 05:05:42;;;;;;;49.97;28.50;;;5.00;99.90;;;;;;4993631;28;20034;-69
2022/03/17 05:08:08;;;;;;;49.53;28.63;;;5.00;99.90;;;;;;4999189;28;20109;-68
2022/03/17 05:10:37;;;;;;;52.00;28.43;;;5.00;99.90;;;;;;4999142;28;20101;-68
2022/03/17 05:13:07;;;;;;;50.80;28.52;;;5.00;99.90;;;;;;4999875;28;20128;-69
2022/03/17 05:15:33;;;;;;;50.95;28.98;;;5.00;99.90;;;;;;4999897;28;20022;-68
2022/03/17 05:17:59;;;;;;;51.13;27.42;;;5.00;99.90;;;;;;4996105;28;20414;-68
2022/03/17 05:20:25;;;;;;;51.97;28.23;;;5.00;99.90;;;;;;5000254;28;20025;-69
2022/03/17 05:22:52;;;;;;;48.53;28.07;;;5.10;99.90;;;;;;4997041;28;20029;-69
2022/03/17 05:25:17;;;;;;;;;;;5.30;99.90;;;;;;4998998;28;20062;-68
2022/03/17 05:27:44;;;;;;;45.05;25.10;;;5.50;99.90;;;;;;4995178;28;20477;-68
2022/03/17 05:30:13;;;;;;;49.38;27.30;;;5.70;99.90;;;;;;4998151;28;20112;-69
2022/03/17 05:32:40;;;;;;;46.30;27.25;;;5.90;99.90;;;;;;4994157;28;20022;-69
2022/03/17 05:35:07;;;;;;;;;;;6.00;99.90;;;;;;4999537;28;20034;-69
2022/03/17 05:37:34;;;;;;;47.40;26.17;;;6.20;99.90;;;;;;5000397;28;19910;-68
2022/03/17 05:40:02;;;;;;;48.35;27.25;;;6.20;99.90;;;;;;4993712;28;20017;-69
2022/03/17 05:42:28;;;;;;;46.10;27.25;;;6.20;99.90;;;;;;5000388;28;20022;-68
2022/03/17 05:44:54;;;;;;;47.85;28.05;;;6.10;99.90;;;;;;4996171;28;20701;-69
2022/03/17 05:47:20;;;;;;;47.67;27.17;;;6.10;99.90;;;;;;4999786;28;20030;-68
2022/03/17 05:49:47;;;;;;;44.47;26.63;;;6.00;99.90;;;;;;4994022;28;20030;-69
2022/03/17 05:52:14;;;;;;;49.65;29.00;;;6.00;99.90;;;;;;4997818;28;20029;-69
2022/03/17 05:54:40;;;;;;;47.72;27.80;;;6.00;99.90;;;;;;4994118;28;20113;-69
2022/03/17 05:57:06;;;;;;;50.13;27.67;;;6.10;99.90;;;;;;4997597;28;20036;-68
2022/03/17 05:59:31;;;;;;;48.47;28.53;;;6.10;99.90;;;;;;4997138;28;20060;-68
2022/03/17 06:01:58;;;;;;;48.93;28.40;;;6.20;99.90;;;;;;4992175;28;20053;-68
2022/03/17 06:04:24;;;;;;;44.20;27.38;;;6.20;99.90;;;;;;4998652;28;20177;-68
2022/03/17 06:06:51;;;;;;;52.47;29.88;;;6.30;99.90;;;;;;4994087;28;20036;-68
2022/03/17 06:09:16;;;;;;;47.72;28.50;;;6.30;99.90;;;;;;4997049;28;20040;-68
2022/03/17 06:11:42;;;;;;;47.17;28.40;;;6.40;99.90;;;;;;4991450;28;20720;-68
2022/03/17 06:14:08;;;;;;;46.57;27.43;;;6.50;99.90;;;;;;4996948;28;20025;-68
2022/03/17 06:16:34;;;;;;;48.73;29.17;;;6.60;99.90;;;;;;4997436;28;20033;-68
2022/03/17 06:18:59;;;;;;;51.88;29.52;;;6.70;99.90;;;;;;4994028;28;20519;-68
2022/03/17 06:21:25;;;;;;;50.43;30.13;;;6.80;99.90;;;;;;4995047;28;20022;-68
2022/03/17 06:23:51;;;;;;;47.47;28.17;;;6.90;99.90;;;;;;4994146;28;20949;-68
2022/03/17 06:26:16;;;;;;;48.67;28.50;;;7.00;99.90;;;;;;4997715;28;20022;-68
2022/03/17 06:28:42;;;;;;;47.70;27.53;;;7.00;99.90;;;;;;4993608;28;20779;-68
2022/03/17 06:31:07;;;;;;;47.90;28.23;;;7.20;99.90;;;;;;4996155;28;20467;-68
2022/03/17 06:33:33;;;;;;;49.77;30.93;;;7.30;99.90;;;;;;4996074;28;20085;-68
2022/03/17 06:35:59;;;;;;;44.90;28.17;;;7.40;99.90;;;;;;4993283;28;20033;-68
2022/03/17 06:38:25;;;;;;;51.38;29.95;;;7.40;99.90;;;;;;4996458;28;20129;-68
2022/03/17 06:40:51;;;;;;;47.63;29.40;;;7.60;99.90;;;;;;4992919;28;20783;-68
2022/03/17 06:43:17;;;;;;;49.23;29.17;;;7.60;99.90;;;;;;4995786;28;20006;-68
2022/03/17 06:45:44;;;;;;;46.25;27.77;;;7.80;99.90;;;;;;4992979;28;20022;-68
2022/03/17 06:48:10;;;;;;;49.42;27.58;;;7.80;99.90;;;;;;4995227;28;20028;-68
2022/03/17 06:50:37;;;;;;;47.20;28.63;;;7.90;99.90;;;;;;4995065;28;20507;-69
2022/03/17 06:53:03;;;;;;;51.33;29.02;;;8.10;99.90;;;;;;4991654;28;20045;-69
2022/03/17 06:55:31;;;;;;;49.58;29.65;;;8.10;99.90;;;;;;4996336;28;20025;-68
2022/03/17 06:57:57;;;;;;;47.67;28.95;;;8.20;99.90;;;;;;4990460;28;20048;-69
2022/03/17 07:00:22;;;;;;;46.57;30.10;;;8.30;99.90;;;;;;4994833;28;20014;-68
2022/03/17 07:02:48;;;;;;;49.63;28.43;;;8.30;99.90;;;;;;4991905;28;20452;-69
2022/03/17 07:05:14;;;;;;;44.92;27.85;;;8.40;99.90;;;;;;4997494;28;20022;-69
2022/03/17 07:07:41;;;;;;;50.45;29.38;;;8.50;99.90;;;;;;4995844;28;20018;-68
2022/03/17 07:10:07;;;;;;;48.35;27.50;;;8.50;99.90;;;;;;4991827;28;20030;-68
2022/03/17 07:12:35;;;;;;;50.80;29.85;;;8.60;99.90;;;;;;4995715;28;20026;-68
2022/03/17 07:15:02;;;;;;;46.38;28.02;;;8.70;99.90;;;;;;4992815;28;20079;-69
2022/03/17 07:17:39;;;;;;;48.30;28.23;;;8.80;99.80;;;;;;4994249;28;20087;-69
2022/03/17 07:20:13;;;;;;;51.53;30.40;;;8.90;99.50;;;;;;4990569;28;20030;-69
2022/03/17 07:22:40;;;;;;;45.90;28.00;;;9.00;99.20;;;;;;4996202;28;20120;-69
2022/03/17 07:25:06;;;;;;;;;;;9.10;99.00;;;;;;4992740;28;20126;-68
2022/03/17 07:27:40;;;;;;;52.42;29.00;;;9.30;99.00;;;;;;4995556;28;19914;-68
2022/03/17 07:30:08;;;;;;;47.35;29.80;;;9.50;98.60;;;;;;4989938;28;20117;-69
2022/03/17 07:32:35;;;;;;;46.22;28.48;;;9.60;98.20;;;;;;4993369;28;20080;-68
2022/03/17 07:35:01;;;;;;;48.10;30.73;;;9.70;97.80;;;;;;4995916;28;20111;-69
2022/03/17 07:37:27;;;;;;;47.30;29.67;;;10.00;97.20;;;;;;4997819;28;20032;-68
2022/03/17 07:39:53;;;;;;;48.33;29.63;;;10.10;96.70;;;;;;4991585;28;20061;-69
2022/03/17 07:42:18;;;;;;;48.77;30.73;;;10.30;96.00;;;;;;4994512;28;20053;-69
2022/03/17 07:44:44;;;;;;;42.67;28.60;;;10.40;95.80;;;;;;4993736;28;20407;-69
2022/03/17 07:47:10;;;;;;;46.13;29.23;;;10.50;95.70;;;;;;4990083;28;20022;-69
2022/03/17 07:49:36;;;;;;;49.70;30.60;;;10.80;95.40;;;;;;4994565;28;20112;-68
2022/03/17 07:52:02;;;;;;;48.17;29.95;;;11.10;94.50;;;;;;4990721;28;20034;-69
2022/03/17 07:54:28;;;;;;;46.80;30.40;;;11.20;93.80;;;;;;4995764;28;20044;-68
2022/03/17 07:56:55;;;;;;;45.47;29.93;;;11.20;93.40;;;;;;4992090;28;20387;-69
2022/03/17 07:59:20;;;;;;;49.83;30.33;;;11.30;93.30;;;;;;4997220;28;20045;-68
2022/03/17 08:01:46;;;;;;;50.30;30.57;;;11.50;93.10;;;;;;4993943;28;20026;-69
2022/03/17 08:04:12;;;;;;;45.57;30.63;;;11.50;92.80;;;;;;4992502;28;20064;-69
2022/03/17 08:06:38;;;;;;;48.90;29.75;;;11.70;92.50;;;;;;4993549;28;20494;-68
2022/03/17 08:09:04;;;;;;;47.67;30.80;;;11.80;92.30;;;;;;4991204;28;20038;-69
2022/03/17 08:11:29;;;;;;;50.63;32.00;;;11.60;92.10;;;;;;4994007;28;20320;-68
2022/03/17 08:13:55;;;;;;;48.23;31.27;;;11.80;91.90;;;;;;4993704;28;20037;-68
2022/03/17 08:16:21;;;;;;;51.30;31.13;;;11.80;91.80;;;;;;4992084;28;20022;-68
2022/03/17 08:18:48;;;;;;;52.67;32.30;;;11.80;91.80;;;;;;4994800;28;20022;-68
2022/03/17 08:21:14;;;;;;;49.45;32.00;;;11.90;91.10;;;;;;4989832;28;20072;-69
2022/03/17 08:23:39;;;;;;;50.73;33.87;;;12.00;91.60;;;;;;4994138;28;20049;-68
2022/03/17 08:26:05;;;;;;;57.23;32.37;;;12.00;91.50;;;;;;4991285;28;20024;-69
2022/03/17 08:28:30;;;;;;;47.17;31.20;;;12.00;91.10;;;;;;4994308;28;20099;-68
2022/03/17 08:30:56;;;;;;;50.80;32.37;;;12.20;90.90;;;;;;4994698;28;20593;-69
2022/03/17 08:33:23;;;;;;;43.80;29.77;;;12.40;90.60;;;;;;4990805;28;20152;-68
2022/03/17 08:35:48;;;;;;;47.50;30.27;;;12.40;90.20;;;;;;4995960;28;20037;-68
2022/03/17 08:38:14;;;;;;;49.97;29.88;;;11.90;90.70;;;;;;4990667;28;20396;-69
2022/03/17 08:40:40;;;;;;;43.13;29.17;;;12.00;90.10;;;;;;4993583;28;20100;-68
2022/03/17 08:43:10;;;;;;;44.40;28.85;;;11.80;90.60;;;;;;4990670;28;20104;-68
2022/03/17 08:51:07;;;;;;;47.65;29.80;;;11.40;90.70;;;;;;4988321;28;20074;-69
2022/03/17 08:53:33;;;;;;;42.25;27.90;;;11.50;91.00;;;;;;4994324;28;20026;-68
2022/03/17 08:56:01;;;;;;;47.37;28.67;;;11.50;90.90;;;;;;4994545;28;20491;-68
2022/03/17 08:58:27;;;;;;;39.70;27.50;;;11.50;90.10;;;;;;4990660;28;20384;-69
2022/03/17 09:00:54;;;;;;;;;;;11.20;90.60;;;;;;4994127;28;20025;-68
2022/03/17 09:03:21;;;;;;;46.60;28.02;;;11.10;91.00;;;;;;4990322;28;19909;-68
2022/03/17 09:05:47;;;;;;;46.35;27.52;;;11.10;91.30;;;;;;4996112;28;20022;-68
2022/03/17 09:08:13;;;;;;;44.50;27.83;;;10.60;92.00;;;;;;4993708;28;21451;-68
2022/03/17 09:10:39;;;;;;;49.38;27.05;;;10.70;92.00;;;;;;4996731;28;20249;-68
2022/03/17 09:13:07;;;;;;;38.10;26.45;;;10.80;91.50;;;;;;4993240;28;20030;-68
2022/03/17 09:15:38;;;;;;;41.15;27.23;;;10.80;91.60;;;;;;5000227;28;20041;-68
2022/03/17 09:18:06;;;;;;;39.78;27.70;;;10.90;91.70;;;;;;4997368;28;20029;-69
2022/03/17 09:20:32;;;;;;;41.05;26.05;;;11.20;90.80;;;;;;4997687;28;20010;-69
2022/03/17 09:22:57;;;;;;;43.93;27.67;;;11.30;91.10;;;;;;5012857;28;20033;-68
2022/03/17 09:25:28;;;;;;;39.37;26.63;;;11.50;91.00;;;;;;4994240;28;20072;-68
2022/03/17 09:27:54;;;;;;;41.58;26.85;;;11.80;89.40;;;;;;4998393;28;20017;-69
2022/03/17 09:30:21;;;;;;;43.20;27.38;;;11.80;89.10;;;;;;4994612;28;20616;-68
2022/03/17 09:32:47;;;;;;;37.03;25.77;;;12.20;89.40;;;;;;4997417;28;20033;-68
2022/03/17 09:35:13;;;;;;;35.88;24.45;;;12.50;87.40;;;;;;4995088;28;20058;-69
2022/03/17 09:37:39;;;;;;;34.08;23.50;;;12.80;85.50;;;;;;4997647;28;20061;-69
2022/03/17 09:40:06;;;;;;;;;;;12.90;82.00;;;;;;4995400;28;20053;-69
2022/03/17 09:42:32;;;;;;;32.67;22.15;;;12.50;81.40;;;;;;4997568;28;19909;-68
2022/03/17 09:44:57;;;;;;;29.30;21.47;;;12.20;80.60;;;;;;4999030;28;20018;-68
2022/03/17 09:47:27;;;;;;;31.47;21.87;;;11.80;83.20;;;;;;4994501;28;20089;-68
2022/03/17 09:49:56;;;;;;;31.08;21.05;;;12.00;81.70;;;;;;4998044;28;20626;-68
2022/03/17 09:52:22;;;;;;;32.00;22.40;;;12.10;81.10;;;;;;4993177;28;20041;-69
2022/03/17 09:54:51;;;;;;;31.48;23.15;;;12.20;80.50;;;;;;4996980;28;20045;-69
2022/03/17 09:57:17;;;;;;;33.30;20.38;;;12.30;81.00;;;;;;4993025;28;20026;-69
2022/03/17 09:59:56;;;;;;;36.10;22.70;;;12.60;81.00;;;;;;4997045;28;20026;-68
2022/03/17 10:02:22;;;;;;;33.38;22.90;;;13.10;80.10;;;;;;4993254;28;20029;-68
2022/03/17 10:04:48;;;;;;;32.55;23.52;;;13.20;77.60;;;;;;4998392;28;20049;-69
2022/03/17 10:07:20;;;;;;;31.58;22.45;;;13.40;76.80;;;;;;4992456;28;20063;-69
2022/03/17 10:09:47;;;;;;;31.48;22.10;;;13.40;76.00;;;;;;4997482;28;20046;-69
2022/03/17 10:12:14;;;;;;;35.80;24.33;;;13.80;74.50;;;;;;4995820;28;20509;-69
2022/03/17 10:14:45;;;;;;;32.70;22.88;;;13.00;76.20;;;;;;4996630;28;20040;-69
2022/03/17 10:17:41;;;;;;;31.45;21.95;;;12.80;76.80;;;;;;4990275;28;20113;-69
2022/03/17 10:20:15;;;;;;;31.52;21.33;;;12.70;77.30;;;;;;5005963;28;20363;-68
2022/03/17 10:22:48;;;;;;;30.20;22.25;;;12.50;77.30;;;;;;4996764;28;20022;-68
2022/03/17 10:25:19;;;;;;;31.85;21.77;;;12.50;77.10;;;;;;4993252;28;20038;-68
2022/03/17 10:27:46;;;;;;;31.17;20.65;;;12.70;77.50;;;;;;4996441;28;20026;-68
2022/03/17 10:30:13;;;;;;;29.08;21.23;;;12.80;77.30;;;;;;4993157;28;20392;-69
2022/03/17 10:32:39;;;;;;;31.35;20.65;;;13.00;76.90;;;;;;4996809;28;20026;-68
2022/03/17 10:35:08;;;;;;;29.17;20.65;;;13.20;76.20;;;;;;4996845;28;20041;-69
2022/03/17 10:37:37;;;;;;;33.40;23.67;;;13.80;76.00;;;;;;4996809;28;20068;-69
2022/03/17 10:40:09;;;;;;;30.52;21.92;;;13.90;74.30;;;;;;4995751;28;20036;-69
2022/03/17 10:42:35;;;;;;;33.25;22.10;;;13.20;74.10;;;;;;4997823;28;20081;-68
2022/03/17 10:45:05;;;;;;;29.73;21.27;;;12.90;76.00;;;;;;4997878;28;20494;-68
2022/03/17 10:47:39;;;;;;;29.48;21.90;;;12.70;76.20;;;;;;4994154;28;20096;-68
2022/03/17 10:50:10;;;;;;;27.60;19.90;;;12.60;76.90;;;;;;4993729;28;20109;-69
2022/03/17 10:52:45;;;;;;;30.33;20.38;;;12.70;75.90;;;;;;4995722;28;20057;-69
2022/03/17 10:55:12;;;;;;;27.00;20.35;;;13.30;74.70;;;;;;4991089;28;20337;-70
2022/03/17 10:57:39;;;;;;;30.98;21.05;;;13.40;73.50;;;;;;4996619;28;20028;-69
2022/03/17 11:00:13;;;;;;;31.58;20.88;;;12.60;74.60;;;;;;4996088;28;20026;-68
2022/03/17 11:02:40;;;;;;;30.58;22.27;;;13.50;74.30;;;;;;4996647;28;20177;-68
2022/03/17 11:05:10;;;;;;;28.50;19.38;;;13.40;72.20;;;;;;4995909;28;20018;-69
2022/03/17 11:07:38;;;;;;;28.95;21.25;;;14.00;69.90;;;;;;4994121;28;20411;-68
2022/03/17 11:10:05;;;;;;;28.88;20.35;;;13.30;68.50;;;;;;4996231;28;20494;-67
2022/03/17 11:12:31;;;;;;;31.20;21.45;;;13.50;69.00;;;;;;4990585;28;20029;-68
2022/03/17 11:14:57;;;;;;;28.52;17.85;;;13.40;69.10;;;;;;4995673;28;20037;-68
2022/03/17 11:17:28;;;;;;;28.40;19.83;;;13.40;69.70;;;;;;4990905;28;20026;-68
2022/03/17 11:20:02;;;;;;;27.08;17.85;;;13.40;67.40;;;;;;4992935;28;20030;-68
2022/03/17 11:22:29;;;;;;;26.88;17.85;;;13.50;66.10;;;;;;4988257;28;20622;-68
2022/03/17 11:25:34;;;;;;;25.35;17.02;;;13.50;66.50;;;;;;4997652;28;20026;-68
2022/03/17 11:28:02;;;;;;;26.15;16.30;;;13.40;61.20;;;;;;4930335;28;20035;-68
2022/03/17 11:30:42;;;;;;;26.15;16.42;;;13.50;58.70;;;;;;4981489;28;20038;-68
2022/03/17 11:33:28;;;;;;;24.75;15.82;;;13.10;59.80;;;;;;4993574;28;20375;-68
2022/03/17 11:35:59;;;;;;;26.27;16.08;;;13.00;60.80;;;;;;4995402;28;20435;-68
2022/03/17 11:38:27;;;;;;;24.20;15.00;;;12.80;57.00;;;;;;4991903;28;20080;-68
2022/03/17 11:41:13;;;;;;;20.45;14.40;;;13.00;56.30;;;;;;4993923;28;20064;-68
2022/03/17 11:43:38;;;;;;;20.20;13.82;;;13.20;56.80;;;;;;4994670;28;20690;-68
2022/03/17 11:46:33;;;;;;;20.00;12.53;;;13.50;55.70;;;;;;4997686;28;20030;-68
2022/03/17 11:49:17;;;;;;;20.25;13.20;;;13.60;49.70;;;;;;5007754;28;20026;-68
2022/03/17 11:52:03;;;;;;;18.02;11.85;;;13.20;50.60;;;;;;4994759;28;20731;-69
2022/03/17 11:54:31;;;;;;;18.83;12.60;;;13.50;50.10;;;;;;4987806;28;20033;-68
2022/03/17 11:56:59;;;;;;;16.50;11.57;;;13.10;50.80;;;;;;4996748;28;20029;-68
2022/03/17 11:59:49;;;;;;;19.33;12.57;;;13.00;51.10;;;;;;4992310;28;20418;-68
2022/03/17 12:02:16;;;;;;;19.33;12.27;;;13.40;51.00;;;;;;4992550;28;20029;-69
2022/03/17 12:04:51;;;;;;;19.05;12.40;;;13.80;49.30;;;;;;4994781;28;20072;-68
2022/03/17 12:07:18;;;;;;;20.38;13.23;;;13.60;50.00;;;;;;4991249;28;20022;-69
2022/03/17 12:09:44;;;;;;;19.48;13.57;;;12.90;50.10;;;;;;4993715;28;20099;-68
2022/03/17 12:12:27;;;;;;;17.20;11.95;;;12.80;50.50;;;;;;4991757;28;20441;-68
2022/03/17 12:14:58;;;;;;;21.65;12.60;;;12.90;51.90;;;;;;4997161;28;20037;-68
2022/03/17 12:17:26;;;;;;;19.77;12.88;;;12.80;51.70;;;;;;4993216;28;20049;-68
2022/03/17 12:20:11;;;;;;;17.35;11.38;;;13.00;51.00;;;;;;4995006;28;20109;-68
2022/03/17 12:22:44;;;;;;;18.38;11.75;;;12.70;50.90;;;;;;4995035;28;20025;-68
2022/03/17 12:25:16;;;;;;;18.45;12.15;;;12.40;50.50;;;;;;4992952;28;20430;-69
2022/03/17 12:27:43;;;;;;;19.38;11.63;;;12.30;51.40;;;;;;4995930;28;20034;-68
2022/03/17 12:30:17;;;;;;;18.00;11.68;;;12.60;51.50;;;;;;4993260;28;20034;-69
2022/03/17 12:32:51;;;;;;;18.70;10.77;;;13.00;51.40;;;;;;4994945;28;20057;-68
2022/03/17 12:35:24;;;;;;;18.30;12.10;;;13.40;50.40;;;;;;4991059;28;20030;-68
2022/03/17 12:37:57;;;;;;;17.52;11.13;;;13.60;50.50;;;;;;4993319;28;20894;-67
2022/03/17 12:40:23;;;;;;;15.20;10.20;;;13.80;51.00;;;;;;4990246;28;20118;-67
2022/03/17 12:42:51;;;;;;;17.40;11.83;;;13.80;48.40;;;;;;4996872;28;20120;-67
2022/03/17 12:45:21;;;;;;;19.25;11.57;;;13.80;49.20;;;;;;4994793;28;20049;-68
2022/03/17 12:47:48;;;;;;;18.23;11.50;;;13.50;48.60;;;;;;5000064;28;20041;-68
2022/03/17 12:50:18;;;;;;;16.40;11.68;;;13.40;49.30;;;;;;4993680;28;20044;-69
2022/03/17 12:52:45;;;;;;;17.75;11.77;;;13.20;49.20;;;;;;4997353;28;20081;-68
2022/03/17 12:55:13;;;;;;;14.20;11.13;;;13.50;49.20;;;;;;5009563;28;20040;-68